createdAt,value
2023-06-30T00:03:16.057Z,13.48
2023-06-30T00:08:17.909Z,13.43
2023-06-30T00:13:19.886Z,13.39
2023-06-30T00:18:21.662Z,13.35
2023-06-30T00:23:23.746Z,13.34
2023-06-30T00:28:25.417Z,13.32
2023-06-30T00:33:27.099Z,13.29
2023-06-30T00:38:28.808Z,13.25
2023-06-30T00:43:30.636Z,13.18
2023-06-30T00:48:32.828Z,13.11
2023-06-30T00:53:34.800Z,13.06
2023-06-30T00:58:36.678Z,13.02
2023-06-30T01:03:44.732Z,12.98
2023-06-30T01:08:57.332Z,12.90
2023-06-30T01:13:59.931Z,12.86
2023-06-30T01:19:04.476Z,12.87
2023-06-30T01:24:08.581Z,12.88
2023-06-30T01:29:11.136Z,12.88
2023-06-30T01:34:12.863Z,12.85
2023-06-30T01:39:16.641Z,12.82
2023-06-30T01:44:18.773Z,12.83
2023-06-30T01:49:20.846Z,12.83
2023-06-30T01:54:22.626Z,12.81
2023-06-30T01:59:24.301Z,12.80
2023-06-30T02:04:26.179Z,12.76
2023-06-30T02:09:38.781Z,12.74
2023-06-30T02:14:48.825Z,12.73
2023-06-30T02:19:50.545Z,12.73
2023-06-30T02:24:54.511Z,12.76
2023-06-30T02:29:57.781Z,12.78
2023-06-30T02:34:59.903Z,12.81
2023-06-30T02:40:02.055Z,12.83
2023-06-30T02:45:06.226Z,12.86
2023-06-30T02:50:08.672Z,12.90
2023-06-30T02:55:11.154Z,12.94
2023-06-30T03:00:13.334Z,13.01
2023-06-30T03:05:15.544Z,13.08
2023-06-30T03:10:17.158Z,13.19
2023-06-30T03:15:18.974Z,13.34
2023-06-30T03:20:20.750Z,13.54
2023-06-30T03:25:22.418Z,13.84
2023-06-30T03:30:24.304Z,14.27
2023-06-30T03:35:26.082Z,14.73
2023-06-30T03:40:27.983Z,15.26
2023-06-30T03:45:29.921Z,15.54
2023-06-30T03:50:31.797Z,16.13
2023-06-30T03:55:33.779Z,18.08
2023-06-30T04:00:35.975Z,19.95
2023-06-30T04:05:37.844Z,20.58
2023-06-30T04:10:39.522Z,22.32
2023-06-30T04:15:41.491Z,23.70
2023-06-30T04:20:43.373Z,24.49
2023-06-30T04:25:45.129Z,25.97
2023-06-30T04:30:47.850Z,27.30
2023-06-30T04:35:49.999Z,28.57
2023-06-30T04:40:51.910Z,29.16
2023-06-30T04:45:53.611Z,28.70
2023-06-30T04:50:55.361Z,27.57
2023-06-30T04:55:57.437Z,27.42
2023-06-30T05:00:59.629Z,28.69
2023-06-30T05:06:01.738Z,30.07
2023-06-30T05:11:03.686Z,31.30
2023-06-30T05:16:06.370Z,32.43
2023-06-30T05:21:11.004Z,33.39
2023-06-30T05:26:12.904Z,33.42
2023-06-30T05:31:14.681Z,32.16
2023-06-30T05:36:16.649Z,31.56
2023-06-30T05:41:18.526Z,31.54
2023-06-30T05:46:20.520Z,30.82
2023-06-30T05:51:22.278Z,29.81
2023-06-30T05:56:24.266Z,28.86
2023-06-30T06:01:26.451Z,28.09
2023-06-30T06:06:28.649Z,27.50
2023-06-30T06:11:30.505Z,27.02
2023-06-30T06:16:32.280Z,26.88
2023-06-30T06:21:36.005Z,26.91
2023-06-30T06:26:37.579Z,27.24
2023-06-30T06:31:39.346Z,27.88
2023-06-30T06:36:41.020Z,28.58
2023-06-30T06:41:42.796Z,29.20
2023-06-30T06:46:44.739Z,29.18
2023-06-30T06:51:47.168Z,29.21
2023-06-30T06:56:51.601Z,29.12
2023-06-30T07:01:53.498Z,30.03
2023-06-30T07:06:55.356Z,31.46
2023-06-30T07:11:57.131Z,31.61
2023-06-30T07:16:58.910Z,32.49
2023-06-30T07:22:00.713Z,34.52
2023-06-30T07:27:03.066Z,34.97
2023-06-30T07:32:05.202Z,34.77
2023-06-30T07:37:08.664Z,34.78
2023-06-30T07:42:10.336Z,35.82
2023-06-30T07:47:12.213Z,36.91
2023-06-30T07:52:13.992Z,38.38
2023-06-30T07:57:15.862Z,39.67
2023-06-30T08:02:18.368Z,40.76
2023-06-30T08:07:20.143Z,40.99
2023-06-30T08:12:42.077Z,41.05
2023-06-30T08:17:53.092Z,41.47
2023-06-30T08:22:59.249Z,41.85
2023-06-30T08:28:01.020Z,41.56
2023-06-30T08:33:03.357Z,40.70
2023-06-30T08:38:05.498Z,40.65
2023-06-30T08:43:11.769Z,40.60
2023-06-30T08:48:13.964Z,40.47
2023-06-30T08:53:17.986Z,40.34
2023-06-30T08:58:25.479Z,40.58
2023-06-30T09:03:28.402Z,40.30
2023-06-30T09:08:42.156Z,39.13
2023-06-30T09:13:46.079Z,37.33
2023-06-30T09:18:49.210Z,35.92
2023-06-30T09:23:51.780Z,35.30
2023-06-30T09:28:54.572Z,34.73
2023-06-30T09:34:14.682Z,33.74
2023-06-30T09:39:16.773Z,32.71
2023-06-30T09:44:21.209Z,32.37
2023-06-30T09:49:24.253Z,32.77
2023-06-30T09:54:43.710Z,33.21
2023-06-30T09:59:47.715Z,33.19
2023-06-30T10:04:49.393Z,32.83
2023-06-30T10:09:51.682Z,32.26
2023-06-30T10:14:54.063Z,31.67
2023-06-30T10:19:55.944Z,31.33
2023-06-30T10:25:01.414Z,31.12
2023-06-30T10:30:06.354Z,30.93
2023-06-30T10:35:09.951Z,30.60
2023-06-30T10:40:38.071Z,30.18
2023-06-30T10:46:15.479Z,29.85
2023-06-30T10:51:17.148Z,29.59
2023-06-30T10:56:22.157Z,29.59
2023-06-30T11:01:23.977Z,29.97
2023-06-30T11:06:26.675Z,30.49
2023-06-30T11:11:29.004Z,30.73
2023-06-30T11:16:31.086Z,30.77
2023-06-30T11:21:33.125Z,30.80
2023-06-30T11:26:36.736Z,30.67
2023-06-30T11:31:38.819Z,30.34
2023-06-30T11:36:40.494Z,29.82
2023-06-30T11:41:44.109Z,29.26
2023-06-30T11:46:46.123Z,28.87
2023-06-30T11:51:48.689Z,28.68
2023-06-30T11:56:50.970Z,28.53
2023-06-30T12:01:53.363Z,28.37
2023-06-30T12:06:56.192Z,28.19
2023-06-30T12:11:59.229Z,28.23
2023-06-30T12:17:03.906Z,28.39
2023-06-30T12:22:07.792Z,28.56
2023-06-30T12:27:09.711Z,28.60
2023-06-30T12:32:13.733Z,28.56
2023-06-30T12:37:18.788Z,28.65
2023-06-30T12:42:23.544Z,28.93
2023-06-30T12:47:26.374Z,29.17
2023-06-30T12:52:28.311Z,29.17
2023-06-30T12:57:30.264Z,28.95
2023-06-30T13:02:34.025Z,28.63
2023-06-30T13:07:35.973Z,28.35
2023-06-30T13:12:41.269Z,28.04
2023-06-30T13:17:43.201Z,27.77
2023-06-30T13:22:56.933Z,27.53
2023-06-30T13:28:06.849Z,27.39
2023-06-30T13:33:08.990Z,27.28
2023-06-30T13:38:12.856Z,27.05
2023-06-30T13:43:14.648Z,26.88
2023-06-30T13:48:16.347Z,26.86
2023-06-30T13:53:18.292Z,26.87
2023-06-30T13:58:20.976Z,26.89
2023-06-30T14:03:23.381Z,27.11
2023-06-30T14:08:25.351Z,27.46
2023-06-30T14:13:28.831Z,27.80
2023-06-30T14:18:30.737Z,28.08
2023-06-30T14:23:32.712Z,28.35
2023-06-30T14:28:34.492Z,28.80
2023-06-30T14:33:39.043Z,29.04
2023-06-30T14:38:41.129Z,28.73
2023-06-30T14:43:43.116Z,28.30
2023-06-30T14:48:44.972Z,28.22
2023-06-30T14:53:46.740Z,28.37
2023-06-30T14:58:50.768Z,28.40
2023-06-30T15:03:52.392Z,28.29
2023-06-30T15:08:54.120Z,28.18
2023-06-30T15:13:55.910Z,28.07
2023-06-30T15:18:58.739Z,27.90
2023-06-30T15:24:01.692Z,27.79
2023-06-30T15:29:04.215Z,27.76
2023-06-30T15:34:05.970Z,27.82
2023-06-30T15:39:08.572Z,27.93
2023-06-30T15:44:10.432Z,27.88
2023-06-30T15:49:13.705Z,27.72
2023-06-30T15:54:15.455Z,27.50
2023-06-30T15:59:17.293Z,27.29
2023-06-30T16:04:19.215Z,27.09
2023-06-30T16:09:21.351Z,26.77
2023-06-30T16:14:23.026Z,26.37
2023-06-30T16:19:24.810Z,25.90
2023-06-30T16:24:26.476Z,25.37
2023-06-30T16:29:33.047Z,24.89
2023-06-30T16:34:35.771Z,24.22
2023-06-30T16:39:37.842Z,23.07
2023-06-30T16:44:39.831Z,22.14
2023-06-30T16:49:42.316Z,21.47
2023-06-30T16:54:44.198Z,20.96
2023-06-30T16:59:46.068Z,20.59
2023-06-30T17:04:49.279Z,20.31
2023-06-30T17:09:51.049Z,20.12
2023-06-30T17:14:52.941Z,20.01
2023-06-30T17:19:54.653Z,19.92
2023-06-30T17:25:04.249Z,19.83
2023-06-30T17:30:10.347Z,19.74
2023-06-30T17:35:12.111Z,19.63
2023-06-30T17:40:14.089Z,19.50
2023-06-30T17:45:15.859Z,19.35
2023-06-30T17:50:18.198Z,19.23
2023-06-30T17:55:20.034Z,19.12
2023-06-30T18:00:22.102Z,19.04
2023-06-30T18:05:24.396Z,18.97
2023-06-30T18:10:26.368Z,18.93
2023-06-30T18:15:31.635Z,18.88
2023-06-30T18:20:33.408Z,18.86
2023-06-30T18:25:35.377Z,18.84
2023-06-30T18:30:38.321Z,18.84
2023-06-30T18:35:40.467Z,18.82
2023-06-30T18:40:42.337Z,18.80
2023-06-30T18:45:44.282Z,18.75
2023-06-30T18:50:46.302Z,18.70
2023-06-30T18:55:51.622Z,18.65
2023-06-30T19:00:54.602Z,18.59
2023-06-30T19:06:00.059Z,18.55
2023-06-30T19:11:08.047Z,18.51
2023-06-30T19:16:10.064Z,18.50
2023-06-30T19:21:12.415Z,18.48
2023-06-30T19:26:15.418Z,18.45
2023-06-30T19:31:18.394Z,18.42
2023-06-30T19:36:20.404Z,18.38
2023-06-30T19:41:24.201Z,18.34
2023-06-30T19:46:27.493Z,18.30
2023-06-30T19:51:29.521Z,18.27
2023-06-30T19:56:31.607Z,18.24
2023-06-30T20:01:33.710Z,18.21
2023-06-30T20:06:35.766Z,18.17
2023-06-30T20:11:37.534Z,18.13
2023-06-30T20:16:39.457Z,18.11
2023-06-30T20:21:41.796Z,18.12
2023-06-30T20:26:43.587Z,18.14
2023-06-30T20:31:45.432Z,18.14
2023-06-30T20:36:50.247Z,18.15
2023-06-30T20:41:52.075Z,18.15
2023-06-30T20:46:54.009Z,18.16
2023-06-30T20:51:57.836Z,18.18
2023-06-30T20:57:01.552Z,18.19
2023-06-30T21:02:03.776Z,18.20
2023-06-30T21:07:05.865Z,18.21
2023-06-30T21:12:07.743Z,18.20
2023-06-30T21:17:10.578Z,18.19
2023-06-30T21:22:12.318Z,18.20
2023-06-30T21:27:14.191Z,18.20
2023-06-30T21:32:16.273Z,18.17
2023-06-30T21:37:18.454Z,18.14
2023-06-30T21:42:20.231Z,18.09
2023-06-30T21:47:22.007Z,18.04
2023-06-30T21:52:23.805Z,17.99
2023-06-30T21:57:25.776Z,17.93
2023-06-30T22:02:27.885Z,17.81
2023-06-30T22:07:30.950Z,17.60
2023-06-30T22:12:33.130Z,17.38
2023-06-30T22:17:34.756Z,17.23
2023-06-30T22:22:36.703Z,17.11
2023-06-30T22:27:38.461Z,17.01
2023-06-30T22:32:40.282Z,16.93
2023-06-30T22:37:42.109Z,16.86
2023-06-30T22:42:44.665Z,16.79
2023-06-30T22:47:47.194Z,16.72
2023-06-30T22:52:50.110Z,16.66
2023-06-30T22:57:52.689Z,16.59
2023-06-30T23:02:54.588Z,16.54
2023-06-30T23:07:56.656Z,16.49
2023-06-30T23:12:59.151Z,16.44
2023-06-30T23:18:01.337Z,16.38
2023-06-30T23:23:08.018Z,16.32
2023-06-30T23:28:10.100Z,16.26
2023-06-30T23:33:12.304Z,16.20
2023-06-30T23:38:15.008Z,16.14
2023-06-30T23:43:23.660Z,16.04
2023-06-30T23:48:25.902Z,15.96
2023-06-30T23:53:28.183Z,15.89
2023-06-30T23:58:30.280Z,15.82
